createdAt,value
2019-06-20T00:02:29.576Z,3.70
2019-06-20T00:04:59.284Z,3.72
2019-06-20T00:07:29.979Z,3.80
2019-06-20T00:09:59.630Z,4.08
2019-06-20T00:12:29.336Z,3.47
2019-06-20T00:14:58.916Z,3.60
2019-06-20T00:17:28.654Z,3.85
2019-06-20T00:19:58.339Z,3.50
2019-06-20T00:22:29.027Z,3.42
2019-06-20T00:24:58.811Z,3.12
2019-06-20T00:27:28.476Z,2.80
2019-06-20T00:29:58.161Z,3.37
2019-06-20T00:32:27.899Z,3.12
2019-06-20T00:34:57.606Z,2.50
2019-06-20T00:37:27.317Z,2.65
2019-06-20T00:39:57.029Z,2.42
2019-06-20T00:42:26.754Z,2.30
2019-06-20T00:44:56.454Z,2.40
2019-06-20T00:47:26.873Z,2.52
2019-06-20T00:50:09.171Z,2.30
2019-06-20T00:55:07.678Z,2.35
2019-06-20T00:57:37.388Z,2.60
2019-06-20T01:00:08.200Z,1.90
2019-06-20T01:02:38.037Z,2.00
2019-06-20T01:05:07.750Z,1.62
2019-06-20T01:07:37.462Z,1.50
2019-06-20T01:10:07.863Z,1.95
2019-06-20T01:12:37.700Z,1.90
2019-06-20T01:15:07.792Z,1.75
2019-06-20T01:17:39.315Z,1.40
2019-06-20T01:20:08.774Z,1.60
2019-06-20T01:22:39.443Z,1.42
2019-06-20T01:25:09.119Z,1.70
2019-06-20T01:27:38.824Z,1.55
2019-06-20T01:30:08.799Z,1.30
2019-06-20T01:32:40.299Z,1.72
2019-06-20T01:35:10.003Z,1.57
2019-06-20T01:37:39.713Z,1.30
2019-06-20T01:40:09.321Z,1.15
2019-06-20T01:42:39.031Z,1.30
2019-06-20T01:45:08.711Z,1.30
2019-06-20T01:47:38.422Z,1.40
2019-06-20T01:50:08.161Z,1.10
2019-06-20T01:52:38.915Z,1.10
2019-06-20T01:55:08.605Z,1.17
2019-06-20T01:57:39.332Z,1.07
2019-06-20T02:00:09.052Z,1.10
2019-06-20T02:02:38.733Z,1.40
2019-06-20T02:05:08.771Z,1.30
2019-06-20T02:07:38.489Z,1.30
2019-06-20T02:10:08.196Z,1.30
2019-06-20T02:12:37.909Z,1.40
2019-06-20T02:15:07.670Z,1.87
2019-06-20T02:17:37.435Z,2.20
2019-06-20T02:20:07.142Z,1.45
2019-06-20T02:22:36.851Z,1.90
2019-06-20T02:25:07.661Z,1.50
2019-06-20T02:27:37.397Z,1.95
2019-06-20T02:30:07.109Z,2.00
2019-06-20T02:32:36.818Z,1.65
2019-06-20T02:35:07.450Z,2.10
2019-06-20T02:37:37.159Z,1.90
2019-06-20T02:40:07.075Z,2.20
2019-06-20T02:42:36.787Z,1.80
2019-06-20T02:45:06.597Z,2.10
2019-06-20T02:47:36.305Z,2.20
2019-06-20T02:50:06.018Z,2.22
2019-06-20T02:52:36.713Z,2.47
2019-06-20T02:55:06.431Z,2.30
2019-06-20T02:57:37.094Z,2.25
2019-06-20T03:00:10.113Z,2.30
2019-06-20T03:02:39.789Z,2.42
2019-06-20T03:05:09.474Z,2.60
2019-06-20T03:07:40.223Z,2.90
2019-06-20T03:10:09.917Z,2.37
2019-06-20T03:12:39.661Z,3.15
2019-06-20T03:15:09.364Z,3.12
2019-06-20T03:17:39.968Z,3.17
2019-06-20T03:20:10.340Z,2.92
2019-06-20T03:22:40.132Z,2.85
2019-06-20T03:25:09.842Z,3.12
2019-06-20T03:27:39.523Z,2.87
2019-06-20T03:30:10.234Z,3.40
2019-06-20T03:32:40.000Z,2.98
2019-06-20T03:35:09.575Z,3.02
2019-06-20T03:37:39.331Z,3.35
2019-06-20T03:40:08.994Z,3.02
2019-06-20T03:42:38.707Z,2.67
2019-06-20T03:45:08.445Z,3.05
2019-06-20T03:47:38.128Z,2.98
2019-06-20T03:50:07.866Z,2.90
2019-06-20T03:52:37.578Z,2.83
2019-06-20T03:55:07.185Z,2.62
2019-06-20T03:57:36.863Z,2.55
2019-06-20T04:00:08.420Z,2.80
2019-06-20T04:02:38.158Z,2.47
2019-06-20T04:05:07.890Z,2.65
2019-06-20T04:07:37.475Z,3.00
2019-06-20T04:10:18.982Z,2.95
2019-06-20T04:12:48.644Z,2.75
2019-06-20T04:15:20.076Z,2.87
2019-06-20T04:17:49.729Z,2.95
2019-06-20T04:20:21.166Z,2.98
2019-06-20T04:22:50.761Z,2.90
2019-06-20T04:25:20.471Z,3.20
2019-06-20T04:27:50.208Z,2.60
2019-06-20T04:30:19.925Z,2.92
2019-06-20T04:32:50.617Z,3.02
2019-06-20T04:35:20.363Z,3.20
2019-06-20T04:37:50.147Z,3.02
2019-06-20T04:40:21.904Z,2.92
2019-06-20T04:42:52.278Z,2.98
2019-06-20T04:45:34.591Z,2.85
2019-06-20T04:48:00.074Z,3.15
2019-06-20T04:50:29.755Z,3.05
2019-06-20T04:52:59.467Z,2.87
2019-06-20T04:55:29.205Z,3.05
2019-06-20T04:57:58.921Z,3.17
2019-06-20T05:00:28.626Z,2.87
2019-06-20T05:02:58.335Z,3.20
2019-06-20T05:05:28.045Z,3.45
2019-06-20T05:07:57.727Z,3.52
2019-06-20T05:10:27.465Z,3.52
2019-06-20T05:12:57.147Z,2.90
2019-06-20T05:15:26.885Z,3.40
2019-06-20T05:17:56.593Z,2.90
2019-06-20T05:20:26.307Z,3.22
2019-06-20T05:22:55.987Z,3.50
2019-06-20T05:25:25.748Z,3.50
2019-06-20T05:27:55.412Z,3.25
2019-06-20T05:30:25.147Z,3.45
2019-06-20T05:32:54.831Z,3.27
2019-06-20T05:35:43.920Z,3.20
2019-06-20T05:38:13.631Z,3.30
2019-06-20T05:40:43.238Z,3.10
2019-06-20T05:43:12.953Z,2.83
2019-06-20T05:45:48.388Z,2.98
2019-06-20T05:48:15.707Z,2.90
2019-06-20T05:50:45.458Z,2.65
2019-06-20T05:53:15.178Z,2.35
2019-06-20T05:55:44.879Z,2.90
2019-06-20T05:58:15.413Z,2.75
2019-06-20T06:00:51.465Z,2.92
2019-06-20T06:03:21.150Z,2.50
2019-06-20T06:05:50.888Z,2.72
2019-06-20T06:08:20.568Z,2.60
2019-06-20T06:10:50.310Z,2.55
2019-06-20T06:13:20.645Z,2.40
2019-06-20T06:15:50.519Z,2.77
2019-06-20T06:18:20.255Z,2.35
2019-06-20T06:20:49.974Z,2.20
2019-06-20T06:23:19.702Z,2.40
2019-06-20T06:25:49.388Z,2.58
2019-06-20T06:28:18.997Z,2.77
2019-06-20T06:30:48.684Z,2.37
2019-06-20T06:33:18.467Z,2.47
2019-06-20T06:35:59.669Z,2.50
2019-06-20T06:38:29.416Z,2.47
2019-06-20T06:40:59.115Z,2.20
2019-06-20T06:43:28.825Z,3.00
2019-06-20T06:45:58.510Z,2.85
2019-06-20T06:48:28.246Z,2.62
2019-06-20T06:50:58.161Z,2.60
2019-06-20T06:53:27.872Z,2.85
2019-06-20T06:55:57.580Z,2.62
2019-06-20T06:58:27.263Z,2.10
2019-06-20T07:00:57.010Z,2.90
2019-06-20T07:03:26.687Z,2.70
2019-06-20T07:05:56.421Z,2.67
2019-06-20T07:08:27.110Z,2.30
2019-06-20T07:10:56.738Z,2.55
2019-06-20T07:13:26.486Z,2.50
2019-06-20T07:15:56.247Z,2.60
2019-06-20T07:18:32.625Z,2.55
2019-06-20T07:21:04.137Z,2.98
2019-06-20T07:23:33.889Z,2.70
2019-06-20T07:26:04.581Z,2.62
2019-06-20T07:28:34.334Z,2.67
2019-06-20T07:31:04.041Z,2.60
2019-06-20T07:33:33.752Z,2.58
2019-06-20T07:36:04.437Z,2.40
2019-06-20T07:38:35.233Z,2.85
2019-06-20T07:41:04.855Z,2.60
2019-06-20T07:43:34.542Z,2.33
2019-06-20T07:46:04.380Z,2.30
2019-06-20T07:48:34.192Z,2.62
2019-06-20T07:51:04.007Z,2.80
2019-06-20T07:53:33.716Z,2.60
2019-06-20T07:56:03.395Z,2.60
2019-06-20T07:58:33.033Z,2.12
2019-06-20T08:01:02.741Z,2.17
2019-06-20T08:03:32.350Z,2.00
2019-06-20T08:06:03.008Z,2.00
2019-06-20T08:08:32.690Z,2.40
2019-06-20T08:11:04.198Z,2.02
2019-06-20T08:13:33.825Z,2.27
2019-06-20T08:16:04.059Z,2.50
2019-06-20T08:18:33.863Z,2.15
2019-06-20T08:21:03.571Z,2.10
2019-06-20T08:23:33.310Z,2.25
2019-06-20T08:26:03.022Z,2.62
2019-06-20T08:28:32.727Z,2.58
2019-06-20T08:31:02.593Z,2.40
2019-06-20T08:33:52.804Z,2.35
2019-06-20T08:36:22.551Z,2.50
2019-06-20T08:38:52.223Z,2.87
2019-06-20T08:41:22.917Z,2.83
2019-06-20T08:43:52.594Z,2.50
2019-06-20T08:46:22.303Z,2.60
2019-06-20T08:48:52.015Z,3.17
2019-06-20T08:51:22.721Z,3.00
2019-06-20T08:53:55.709Z,2.75
2019-06-20T08:56:23.808Z,3.02
2019-06-20T08:58:53.983Z,3.10
2019-06-20T09:01:24.871Z,2.60
2019-06-20T09:03:55.659Z,2.67
2019-06-20T09:06:25.895Z,2.87
2019-06-20T09:08:56.731Z,2.52
2019-06-20T09:11:26.879Z,2.62
2019-06-20T09:13:57.230Z,2.25
2019-06-20T09:16:27.121Z,2.80
2019-06-20T09:18:58.340Z,2.70
2019-06-20T09:21:47.175Z,2.90
2019-06-20T09:24:16.936Z,2.87
2019-06-20T09:26:46.619Z,3.05
2019-06-20T09:29:17.330Z,2.87
2019-06-20T09:31:46.964Z,2.60
2019-06-20T09:34:16.673Z,3.25
2019-06-20T09:36:46.407Z,2.95
2019-06-20T09:39:16.139Z,3.08
2019-06-20T09:41:45.802Z,3.15
2019-06-20T09:44:27.560Z,2.75
2019-06-20T09:46:58.178Z,2.87
2019-06-20T09:49:27.965Z,3.22
2019-06-20T09:51:58.728Z,2.67
2019-06-20T09:54:29.587Z,2.80
2019-06-20T09:56:59.215Z,3.37
2019-06-20T09:59:28.953Z,2.55
2019-06-20T10:01:58.920Z,2.65
2019-06-20T10:04:28.757Z,3.25
2019-06-20T10:06:58.493Z,3.17
2019-06-20T10:09:29.935Z,3.20
2019-06-20T10:11:59.554Z,2.83
2019-06-20T10:14:29.265Z,3.00
2019-06-20T10:16:58.975Z,3.25
2019-06-20T10:19:28.684Z,3.60
2019-06-20T10:21:58.392Z,3.75
2019-06-20T10:24:28.106Z,4.65
2019-06-20T10:26:58.003Z,4.33
2019-06-20T10:29:27.830Z,4.47
2019-06-20T10:31:57.512Z,4.60
2019-06-20T10:34:27.254Z,5.37
2019-06-20T10:36:57.136Z,4.90
2019-06-20T10:39:26.846Z,5.15
2019-06-20T10:41:57.234Z,5.17
2019-06-20T10:44:27.014Z,5.60
2019-06-20T10:46:56.723Z,4.62
2019-06-20T10:49:26.405Z,5.00
2019-06-20T10:51:56.143Z,5.10
2019-06-20T10:54:25.853Z,4.10
2019-06-20T10:56:55.535Z,5.08
2019-06-20T10:59:26.194Z,4.30
2019-06-20T11:01:55.875Z,4.22
2019-06-20T11:04:25.614Z,4.58
2019-06-20T11:06:55.295Z,4.62
2019-06-20T11:09:26.851Z,4.90
2019-06-20T11:11:56.487Z,4.87
2019-06-20T11:14:26.197Z,4.70
2019-06-20T11:16:55.905Z,4.00
2019-06-20T11:19:26.582Z,4.83
2019-06-20T11:21:57.352Z,4.35
2019-06-20T11:24:26.925Z,4.30
2019-06-20T11:26:56.691Z,4.12
2019-06-20T11:29:26.471Z,4.20
2019-06-20T11:31:56.214Z,3.12
2019-06-20T11:34:25.822Z,3.37
2019-06-20T11:36:55.535Z,2.90
2019-06-20T11:39:27.020Z,2.70
2019-06-20T11:41:56.460Z,2.72
2019-06-20T11:44:26.199Z,2.77
2019-06-20T11:46:55.813Z,2.92
2019-06-20T11:49:27.204Z,2.60
2019-06-20T11:54:25.755Z,2.50
2019-06-20T11:56:55.494Z,2.52
2019-06-20T11:59:25.176Z,2.70
2019-06-20T12:01:54.886Z,2.42
2019-06-20T12:04:24.576Z,2.00
2019-06-20T12:06:54.305Z,2.00
2019-06-20T12:09:24.015Z,2.70
2019-06-20T12:11:53.724Z,1.92
2019-06-20T12:14:23.591Z,1.82
2019-06-20T12:16:53.470Z,2.12
2019-06-20T12:19:23.163Z,1.75
2019-06-20T12:21:52.875Z,1.72
2019-06-20T12:24:22.556Z,1.80
2019-06-20T12:26:52.294Z,2.00
2019-06-20T12:29:23.786Z,2.35
2019-06-20T12:31:53.457Z,2.35
2019-06-20T12:34:23.165Z,2.08
2019-06-20T12:36:52.848Z,2.40
2019-06-20T12:39:22.587Z,2.25
2019-06-20T12:41:54.059Z,2.55
2019-06-20T12:44:25.566Z,2.37
2019-06-20T12:46:55.095Z,2.80
2019-06-20T12:49:24.779Z,2.70
2019-06-20T12:51:54.487Z,2.60
2019-06-20T12:54:24.240Z,2.62
2019-06-20T12:56:54.883Z,2.65
2019-06-20T12:59:26.280Z,2.85
2019-06-20T13:01:57.840Z,2.65
2019-06-20T13:04:27.468Z,2.65
2019-06-20T13:06:57.177Z,2.52
2019-06-20T13:09:26.888Z,2.77
2019-06-20T13:11:56.600Z,2.62
2019-06-20T13:14:26.312Z,2.27
2019-06-20T13:16:57.742Z,2.60
2019-06-20T13:19:27.375Z,2.45
2019-06-20T13:21:57.088Z,2.47
2019-06-20T13:24:27.610Z,2.27
2019-06-20T13:26:57.320Z,2.60
2019-06-20T13:29:27.009Z,2.17
2019-06-20T13:32:03.801Z,2.10
2019-06-20T13:34:28.089Z,2.30
2019-06-20T13:36:57.798Z,2.10
2019-06-20T13:39:28.505Z,2.22
2019-06-20T13:41:58.243Z,2.10
2019-06-20T13:44:27.951Z,2.20
2019-06-20T13:46:57.661Z,2.30
2019-06-20T13:49:27.373Z,2.25
2019-06-20T13:51:57.080Z,2.65
2019-06-20T13:54:26.766Z,2.90
2019-06-20T13:56:56.501Z,2.70
2019-06-20T13:59:26.210Z,2.50
2019-06-20T14:02:06.278Z,2.72
2019-06-20T14:04:28.165Z,2.33
2019-06-20T14:06:58.825Z,2.33
2019-06-20T14:09:28.533Z,2.50
2019-06-20T14:12:00.171Z,2.67
2019-06-20T14:14:31.304Z,2.30
2019-06-20T14:17:00.942Z,2.60
2019-06-20T14:19:30.654Z,2.87
2019-06-20T14:22:00.361Z,2.92
2019-06-20T14:24:31.052Z,3.92
2019-06-20T14:27:02.298Z,3.37
2019-06-20T14:29:32.153Z,3.75
2019-06-20T14:32:01.863Z,3.00
2019-06-20T14:34:31.572Z,3.55
2019-06-20T14:37:01.286Z,4.15
2019-06-20T14:39:34.057Z,5.28
2019-06-20T14:42:02.344Z,4.07
2019-06-20T14:44:32.028Z,4.15
2019-06-20T14:47:01.767Z,3.87
2019-06-20T14:49:31.371Z,5.03
2019-06-20T14:52:01.080Z,5.12
2019-06-20T14:54:30.793Z,5.78
2019-06-20T14:57:01.491Z,5.22
2019-06-20T14:59:31.135Z,6.80
2019-06-20T15:02:00.826Z,6.08
2019-06-20T15:04:30.554Z,6.05
2019-06-20T15:07:00.271Z,6.00
2019-06-20T15:09:29.971Z,6.40
2019-06-20T15:12:00.662Z,5.37
2019-06-20T15:14:30.314Z,5.80
2019-06-20T15:17:00.026Z,4.95
2019-06-20T15:19:29.736Z,6.15
2019-06-20T15:21:59.348Z,6.00
2019-06-20T15:24:29.099Z,7.12
2019-06-20T15:26:58.835Z,6.15
2019-06-20T15:29:28.575Z,9.58
2019-06-20T15:31:58.285Z,7.20
2019-06-20T15:34:27.993Z,5.95
2019-06-20T15:36:57.835Z,6.30
2019-06-20T15:39:29.511Z,6.25
2019-06-20T15:41:59.172Z,6.78
2019-06-20T15:44:28.887Z,6.90
2019-06-20T15:46:58.592Z,6.62
2019-06-20T15:49:28.305Z,5.45
2019-06-20T15:51:59.168Z,5.80
2019-06-20T15:54:29.154Z,5.90
2019-06-20T15:56:58.843Z,6.53
2019-06-20T15:59:28.578Z,6.85
2019-06-20T16:02:00.017Z,6.72
2019-06-20T16:04:29.738Z,7.30
2019-06-20T16:06:59.356Z,5.55
2019-06-20T16:09:29.060Z,6.20
2019-06-20T16:11:58.768Z,6.30
2019-06-20T16:14:28.476Z,5.97
2019-06-20T16:16:58.190Z,5.87
2019-06-20T16:19:27.896Z,5.60
2019-06-20T16:21:57.606Z,5.80
2019-06-20T16:24:27.291Z,5.35
2019-06-20T16:26:57.027Z,4.37
2019-06-20T16:29:26.708Z,5.08
2019-06-20T16:31:57.389Z,3.55
2019-06-20T16:34:27.180Z,4.00
2019-06-20T16:37:09.277Z,3.70
2019-06-20T16:39:29.223Z,3.58
2019-06-20T16:41:58.948Z,3.40
2019-06-20T16:44:28.687Z,3.40
2019-06-20T16:47:10.862Z,3.42
2019-06-20T16:49:40.495Z,3.83
2019-06-20T16:52:10.205Z,3.60
2019-06-20T16:54:39.919Z,3.25
2019-06-20T16:57:09.605Z,3.08
2019-06-20T16:59:39.334Z,3.40
2019-06-20T17:02:09.052Z,3.75
2019-06-20T17:04:38.755Z,3.83
2019-06-20T17:07:08.442Z,3.05
2019-06-20T17:09:38.175Z,3.20
2019-06-20T17:12:11.051Z,3.52
2019-06-20T17:14:41.259Z,3.98
2019-06-20T17:17:12.016Z,3.30
2019-06-20T17:19:42.780Z,3.40
2019-06-20T17:22:12.562Z,3.60
2019-06-20T17:24:42.276Z,3.22
2019-06-20T17:27:12.941Z,3.52
2019-06-20T17:29:42.616Z,3.42
2019-06-20T17:32:12.325Z,3.92
2019-06-20T17:34:42.037Z,4.00
2019-06-20T17:37:13.747Z,3.35
2019-06-20T17:39:43.380Z,3.75
2019-06-20T17:42:13.110Z,4.67
2019-06-20T17:44:42.822Z,4.10
2019-06-20T17:47:33.964Z,4.15
2019-06-20T17:50:05.423Z,4.12
2019-06-20T17:52:35.097Z,4.62
2019-06-20T17:55:05.943Z,4.10
2019-06-20T17:57:36.768Z,4.78
2019-06-20T18:00:15.080Z,4.33
2019-06-20T18:02:44.791Z,4.30
2019-06-20T18:05:14.500Z,4.17
2019-06-20T18:07:44.187Z,4.40
2019-06-20T18:10:13.896Z,4.53
2019-06-20T18:12:43.644Z,4.85
2019-06-20T18:15:13.310Z,4.17
2019-06-20T18:17:43.049Z,5.55
2019-06-20T18:20:12.761Z,4.70
2019-06-20T18:22:42.470Z,4.72
2019-06-20T18:25:12.179Z,4.12
2019-06-20T18:27:41.969Z,3.98
2019-06-20T18:30:11.758Z,3.62
2019-06-20T18:32:41.396Z,3.83
2019-06-20T18:35:11.075Z,4.28
2019-06-20T18:37:40.817Z,4.30
2019-06-20T18:40:11.213Z,6.92
2019-06-20T18:42:41.900Z,4.22
2019-06-20T18:45:11.579Z,4.28
2019-06-20T18:47:41.288Z,5.90
2019-06-20T18:50:10.971Z,4.28
2019-06-20T18:52:51.512Z,4.00
2019-06-20T18:55:11.955Z,4.12
2019-06-20T18:57:41.665Z,3.72
2019-06-20T19:00:12.630Z,3.87
2019-06-20T19:02:44.014Z,3.75
2019-06-20T19:05:14.783Z,4.08
2019-06-20T19:07:44.473Z,4.40
2019-06-20T19:10:14.904Z,4.53
2019-06-20T19:12:44.637Z,4.35
2019-06-20T19:15:14.346Z,4.72
2019-06-20T19:17:44.056Z,4.67
2019-06-20T19:20:14.357Z,4.33
2019-06-20T19:22:44.064Z,4.72
2019-06-20T19:25:13.801Z,4.80
2019-06-20T19:27:46.578Z,4.70
2019-06-20T19:30:17.703Z,5.33
2019-06-20T19:32:47.437Z,4.65
2019-06-20T19:35:18.854Z,5.03
2019-06-20T19:37:48.499Z,4.97
2019-06-20T19:40:18.211Z,4.78
2019-06-20T19:42:47.888Z,4.87
2019-06-20T19:45:17.629Z,4.72
2019-06-20T19:47:47.309Z,4.80
2019-06-20T19:50:17.055Z,5.50
2019-06-20T19:52:47.996Z,4.97
2019-06-20T19:55:17.976Z,4.72
2019-06-20T19:57:47.753Z,5.20
2019-06-20T20:00:17.423Z,4.85
2019-06-20T20:02:47.132Z,4.78
2019-06-20T20:05:19.633Z,5.08
2019-06-20T20:07:50.419Z,5.20
2019-06-20T20:10:41.249Z,5.20
2019-06-20T20:13:10.937Z,5.53
2019-06-20T20:15:40.669Z,5.20
2019-06-20T20:18:10.352Z,4.95
2019-06-20T20:20:40.089Z,4.90
2019-06-20T20:23:11.498Z,5.00
2019-06-20T20:25:41.250Z,5.47
2019-06-20T20:28:10.935Z,5.50
2019-06-20T20:30:41.593Z,5.33
2019-06-20T20:33:12.524Z,5.62
2019-06-20T20:35:43.994Z,4.72
2019-06-20T20:38:13.486Z,5.00
2019-06-20T20:40:44.829Z,5.90
2019-06-20T20:43:14.647Z,5.40
2019-06-20T20:45:45.280Z,5.45
2019-06-20T20:48:15.988Z,6.00
2019-06-20T20:50:45.695Z,5.72
2019-06-20T20:53:15.445Z,5.17
2019-06-20T20:55:45.143Z,4.87
2019-06-20T20:58:14.854Z,5.33
2019-06-20T21:01:14.978Z,5.53
2019-06-20T21:03:44.688Z,5.37
2019-06-20T21:06:15.412Z,5.55
2019-06-20T21:08:45.131Z,5.33
2019-06-20T21:11:16.578Z,5.60
2019-06-20T21:13:46.266Z,5.50
2019-06-20T21:16:16.001Z,5.65
2019-06-20T21:18:45.816Z,5.25
2019-06-20T21:21:15.495Z,5.42
2019-06-20T21:23:45.213Z,5.25
2019-06-20T21:26:14.942Z,6.47
2019-06-20T21:28:44.658Z,5.90
2019-06-20T21:31:33.691Z,5.30
2019-06-20T21:34:03.399Z,5.87
2019-06-20T21:36:35.036Z,5.85
2019-06-20T21:39:06.476Z,5.80
2019-06-20T21:41:36.144Z,5.42
2019-06-20T21:44:05.853Z,5.62
2019-06-20T21:46:35.465Z,6.00
2019-06-20T21:49:06.115Z,5.10
2019-06-20T21:51:35.776Z,5.35
2019-06-20T21:54:07.025Z,4.90
2019-06-20T21:56:36.660Z,5.47
2019-06-20T21:59:06.341Z,5.40
2019-06-20T22:01:36.076Z,5.50
2019-06-20T22:04:05.791Z,5.03
2019-06-20T22:06:35.499Z,6.28
2019-06-20T22:09:07.313Z,5.60
2019-06-20T22:11:40.338Z,5.72
2019-06-20T22:14:10.055Z,5.85
2019-06-20T22:16:39.781Z,6.30
2019-06-20T22:19:11.354Z,6.08
2019-06-20T22:21:42.575Z,6.03
2019-06-20T22:24:12.070Z,5.97
2019-06-20T22:26:41.752Z,6.60
2019-06-20T22:29:11.466Z,6.95
2019-06-20T22:31:41.206Z,6.22
2019-06-20T22:34:10.910Z,6.55
2019-06-20T22:36:40.874Z,6.75
2019-06-20T22:39:10.713Z,5.67
2019-06-20T22:41:40.451Z,5.37
2019-06-20T22:44:10.161Z,5.90
2019-06-20T22:46:41.602Z,6.20
2019-06-20T22:49:11.222Z,6.45
2019-06-20T22:51:40.940Z,6.30
2019-06-20T22:54:10.611Z,6.10
2019-06-20T22:56:40.348Z,6.45
2019-06-20T22:59:11.986Z,6.42
2019-06-20T23:01:41.408Z,6.83
2019-06-20T23:04:12.044Z,6.80
2019-06-20T23:06:55.367Z,7.37
2019-06-20T23:09:12.997Z,6.83
2019-06-20T23:11:42.706Z,6.40
2019-06-20T23:14:14.153Z,6.40
2019-06-20T23:16:43.772Z,7.42
2019-06-20T23:19:13.447Z,7.20
2019-06-20T23:21:43.159Z,6.75
2019-06-20T23:24:12.873Z,7.90
2019-06-20T23:26:42.613Z,7.35
2019-06-20T23:29:24.311Z,6.42
2019-06-20T23:31:55.415Z,6.65
2019-06-20T23:34:25.150Z,6.78
2019-06-20T23:37:08.654Z,6.62
2019-06-20T23:39:28.456Z,6.47
2019-06-20T23:41:58.479Z,6.28
2019-06-20T23:44:28.164Z,5.30
2019-06-20T23:46:57.802Z,5.83
2019-06-20T23:49:27.508Z,5.70
2019-06-20T23:52:09.689Z,5.75
2019-06-20T23:54:39.085Z,5.97
2019-06-20T23:57:08.724Z,5.90
2019-06-20T23:59:38.435Z,6.85
